Time;durP1;ratioP1;P1;durP2;ratioP2;P2;SDS_P1;SDS_P2;PMS_P1;PMS_P2;Temp;Humidity;BMP_temperature;BMP_pressure;BME280_temperature;BME280_humidity;BME280_pressure;Samples;Min_cycle;Max_cycle;Signal;HPM_P1;HPM_P2
2024/01/18 00:01:12;;;;;;;27.65;17.88;;;;;;;-142.57;100.00;56151.63;5032979;28;20040;-76
2024/01/18 00:03:41;;;;;;;24.67;15.98;;;;;;;-142.57;100.00;56135.47;5033363;28;20045;-78
2024/01/18 00:06:07;;;;;;;25.83;16.63;;;;;;;-142.57;100.00;56105.16;5033077;28;20492;-77
2024/01/18 00:08:33;;;;;;;28.30;18.77;;;;;;;-142.57;100.00;56139.50;5047927;28;20494;-80
2024/01/18 00:11:00;;;;;;;27.08;18.50;;;;;;;-142.57;100.00;56145.56;5033051;28;20041;-78
2024/01/18 00:13:26;;;;;;;26.02;18.27;;;;;;;-142.57;100.00;56194.06;5032826;28;20045;-78
2024/01/18 00:15:51;;;;;;;27.10;17.92;;;;;;;-142.57;100.00;56190.03;5032701;28;20121;-78
2024/01/18 00:18:17;;;;;;;30.02;18.58;;;;;;;-142.57;100.00;56198.09;5032772;28;20478;-78
2024/01/18 00:20:42;;;;;;;26.30;18.17;;;;;;;-142.57;100.00;56248.63;5033035;28;20112;-77
2024/01/18 00:23:08;;;;;;;29.15;19.65;;;;;;;-142.57;100.00;56167.78;5031390;28;20059;-77
2024/01/18 00:25:36;;;;;;;28.20;18.52;;;;;;;-142.57;100.00;56185.97;5032770;28;20034;-78
2024/01/18 00:28:02;;;;;;;31.13;18.50;;;;;;;-142.57;100.00;56181.94;5032794;28;20037;-80
2024/01/18 00:30:28;;;;;;;28.33;18.02;;;;;;;-142.57;100.00;56121.31;5032556;28;20022;-83
2024/01/18 00:32:53;;;;;;;28.45;18.75;;;;;;;-142.57;100.00;56113.25;5032736;28;20113;-78
2024/01/18 00:35:19;;;;;;;28.58;18.65;;;;;;;-142.57;100.00;56137.50;5032725;28;20030;-78
2024/01/18 00:37:44;;;;;;;30.85;20.20;;;;;;;-142.57;100.00;56149.63;5032282;28;20075;-79
2024/01/18 00:40:12;;;;;;;30.58;19.88;;;;;;;-142.57;100.00;56157.69;5033285;28;20089;-80
2024/01/18 00:42:41;;;;;;;26.85;17.67;;;;;;;-142.57;100.00;56125.38;5035937;28;20080;-78
2024/01/18 00:45:08;;;;;;;29.73;18.42;;;;;;;-142.57;100.00;56167.78;5055741;28;20025;-78
2024/01/18 00:47:34;;;;;;;25.48;17.63;;;;;;;-142.57;100.00;56194.06;5039152;28;20045;-77
2024/01/18 00:49:59;;;;;;;25.73;17.98;;;;;;;-142.57;100.00;56163.75;5055853;28;20044;-81
2024/01/18 00:52:25;;;;;;;25.75;17.30;;;;;;;-142.57;100.00;56177.91;5040253;28;20482;-78
2024/01/18 00:54:50;;;;;;;25.45;17.33;;;;;;;-142.57;100.00;56157.69;5033020;28;20029;-77
2024/01/18 00:57:16;;;;;;;26.48;17.48;;;;;;;-142.57;100.00;56167.78;5032486;28;20127;-77
2024/01/18 00:59:41;;;;;;;25.52;17.65;;;;;;;-142.57;100.00;56129.41;5032502;28;20179;-79
2024/01/18 01:02:08;;;;;;;25.23;17.77;;;;;;;-142.57;100.00;56125.38;5032338;28;20394;-76
2024/01/18 01:04:34;;;;;;;25.85;18.00;;;;;;;-142.57;100.00;56143.56;5032436;28;20030;-81
2024/01/18 01:06:59;;;;;;;28.73;19.13;;;;;;;-142.57;100.00;56062.72;5032645;28;20040;-78
2024/01/18 01:09:25;;;;;;;27.10;17.77;;;;;;;-142.57;100.00;56121.31;5032429;28;20471;-82
2024/01/18 01:11:51;;;;;;;28.23;18.33;;;;;;;-142.57;100.00;56093.03;5047411;28;20041;-80
2024/01/18 01:14:18;;;;;;;27.80;19.05;;;;;;;-142.57;100.00;56202.16;5033805;28;20505;-79
2024/01/18 01:16:43;;;;;;;30.17;19.85;;;;;;;-142.57;100.00;56194.06;5032186;28;20042;-78
2024/01/18 01:19:08;;;;;;;28.23;18.67;;;;;;;-142.57;100.00;56183.97;5030931;28;20045;-79
2024/01/18 01:21:34;;;;;;;30.20;19.05;;;;;;;-142.57;100.00;56220.34;5031921;28;20030;-78
2024/01/18 01:24:00;;;;;;;28.15;19.20;;;;;;;-142.57;100.00;56206.19;5030837;28;20037;-77
2024/01/18 01:26:26;;;;;;;29.17;19.30;;;;;;;-142.57;100.00;56198.09;5032012;28;20486;-79
2024/01/18 01:28:51;;;;;;;25.85;18.02;;;;;;;-142.57;100.00;56177.91;5032414;28;20486;-78
2024/01/18 01:31:17;;;;;;;30.25;19.33;;;;;;;-142.57;100.00;56155.66;5031854;28;20037;-77
2024/01/18 01:33:43;;;;;;;27.15;17.65;;;;;;;-142.57;100.00;56101.13;5030482;28;20522;-77
2024/01/18 01:36:08;;;;;;;29.00;18.48;;;;;;;-142.57;100.00;56127.38;5032076;28;20034;-80
2024/01/18 01:38:34;;;;;;;26.83;17.83;;;;;;;-142.57;100.00;56198.09;5031824;28;20457;-78
2024/01/18 01:41:00;;;;;;;29.77;18.65;;;;;;;-142.57;100.00;56129.41;5033015;28;20094;-79
2024/01/18 01:43:27;;;;;;;29.10;18.05;;;;;;;-142.57;100.00;56117.28;5032086;28;20026;-78
2024/01/18 01:45:52;;;;;;;27.75;18.00;;;;;;;-142.57;100.00;56119.31;5032522;28;20047;-80
2024/01/18 01:48:21;;;;;;;28.70;18.55;;;;;;;-142.57;100.00;56135.47;5031637;28;20390;-77
2024/01/18 01:50:47;;;;;;;29.52;17.92;;;;;;;-142.57;100.00;56101.13;5030759;28;20041;-78
2024/01/18 01:53:14;;;;;;;24.67;15.90;;;;;;;-142.57;100.00;56093.03;5031620;28;20034;-75
2024/01/18 01:55:42;;;;;;;26.20;16.92;;;;;;;-142.57;100.00;56103.13;5049473;28;20110;-83
2024/01/18 01:58:10;;;;;;;23.13;14.88;;;;;;;-142.57;100.00;56086.97;5035604;28;20045;-76
2024/01/18 02:00:36;;;;;;;21.98;13.93;;;;;;;-142.57;100.00;56115.25;5035889;28;20381;-79
2024/01/18 02:03:03;;;;;;;21.65;14.18;;;;;;;-142.57;100.00;56056.66;5035625;28;20058;-79
2024/01/18 02:05:28;;;;;;;21.98;14.18;;;;;;;-142.57;100.00;56006.13;5035350;28;20125;-80
2024/01/18 02:07:55;;;;;;;21.60;14.20;;;;;;;-142.57;100.00;56060.69;5050624;28;20037;-78
2024/01/18 02:10:21;;;;;;;23.33;14.75;;;;;;;-142.57;100.00;56109.19;5036186;28;20080;-77
2024/01/18 02:12:48;;;;;;;21.35;13.68;;;;;;;-142.57;100.00;56093.03;5035054;28;20034;-79
2024/01/18 02:15:16;;;;;;;21.80;13.77;;;;;;;-142.57;100.00;56133.44;5034966;28;20539;-80
2024/01/18 02:17:43;;;;;;;17.55;11.88;;;;;;;-142.57;100.00;56123.34;5001146;28;20450;-79
2024/01/18 02:20:09;;;;;;;16.80;11.57;;;;;;;-142.57;100.00;56103.13;5034980;28;20040;-80
2024/01/18 02:22:40;;;;;;;17.40;10.98;;;;;;;-142.57;100.00;56060.69;5034933;28;20094;-79
2024/01/18 02:25:27;;;;;;;16.10;10.38;;;;;;;-142.57;100.00;56078.88;5035452;28;20041;-77
2024/01/18 02:27:55;;;;;;;15.13;9.90;;;;;;;-142.57;100.00;56060.69;5034980;28;20033;-80
2024/01/18 02:30:21;;;;;;;15.13;9.57;;;;;;;-142.57;100.00;56072.81;5034895;28;20120;-77
2024/01/18 02:32:46;;;;;;;13.00;9.02;;;;;;;-142.57;100.00;56060.69;5035264;28;20554;-78
2024/01/18 02:35:12;;;;;;;12.98;8.80;;;;;;;-142.57;100.00;56070.81;5036200;28;20025;-78
2024/01/18 02:37:38;;;;;;;14.10;8.00;;;;;;;-142.57;100.00;56008.16;5026339;28;20049;-79
2024/01/18 02:40:06;;;;;;;13.50;8.40;;;;;;;-142.57;100.00;56044.53;5042158;28;20096;-79
2024/01/18 02:42:32;;;;;;;11.98;7.55;;;;;;;-142.57;100.00;56036.44;5033332;28;20152;-77
2024/01/18 02:44:58;;;;;;;11.32;7.32;;;;;;;-142.57;100.00;56048.56;5035502;28;20113;-78
2024/01/18 02:47:27;;;;;;;11.90;7.43;;;;;;;-142.57;100.00;56038.47;5034912;28;20041;-79
2024/01/18 02:49:53;;;;;;;9.82;6.57;;;;;;;-142.57;100.00;56016.25;5034506;28;20037;-78
2024/01/18 02:52:19;;;;;;;10.52;7.03;;;;;;;-142.57;100.00;56036.44;5034490;28;20049;-77
2024/01/18 02:54:45;;;;;;;11.70;7.22;;;;;;;-142.57;100.00;56040.50;5034320;28;20041;-78
2024/01/18 02:57:10;;;;;;;9.45;7.07;;;;;;;-142.57;100.00;56036.44;5034252;28;20033;-78
2024/01/18 02:59:36;;;;;;;10.90;7.15;;;;;;;-142.57;100.00;56006.13;5034661;28;20360;-79
2024/01/18 03:02:01;;;;;;;13.35;7.90;;;;;;;-142.57;100.00;55998.06;5034709;28;20095;-79
2024/01/18 03:04:27;;;;;;;11.57;7.40;;;;;;;-142.57;100.00;55983.91;5037728;28;20030;-77
2024/01/18 03:07:30;;;;;;;12.43;7.05;;;;;;;-142.57;100.00;56038.47;5048885;28;20075;-77
2024/01/18 03:09:56;;;;;;;10.65;7.07;;;;;;;-142.57;100.00;55992.00;5040764;28;20116;-78
2024/01/18 03:12:21;;;;;;;11.35;7.15;;;;;;;-142.57;100.00;56026.34;5051994;28;20041;-78
2024/01/18 03:14:47;;;;;;;9.15;6.97;;;;;;;-142.57;100.00;56028.38;5017308;28;20063;-78
2024/01/18 03:17:12;;;;;;;9.40;6.60;;;;;;;-142.57;100.00;56008.16;5034179;28;20067;-81
2024/01/18 03:19:38;;;;;;;11.07;6.65;;;;;;;-142.57;100.00;56002.09;5039607;28;20029;-79
2024/01/18 03:22:03;;;;;;;9.60;5.90;;;;;;;-142.57;100.00;56000.06;5033944;28;20048;-78
2024/01/18 03:24:29;;;;;;;7.95;5.90;;;;;;;-142.57;100.00;55983.91;5034217;28;20044;-79
2024/01/18 03:26:54;;;;;;;7.80;5.45;;;;;;;-142.57;100.00;55992.00;5039134;28;20116;-78
2024/01/18 03:29:20;;;;;;;11.13;6.10;;;;;;;-142.57;100.00;55992.00;5034065;28;20037;-78
2024/01/18 03:31:45;;;;;;;9.40;6.30;;;;;;;-142.57;100.00;55963.72;5015967;28;20427;-79
2024/01/18 03:34:12;;;;;;;7.55;5.68;;;;;;;-142.57;100.00;56024.31;5033968;28;20037;-79
2024/01/18 03:36:38;;;;;;;8.20;5.57;;;;;;;-142.57;100.00;56008.16;5033490;28;20037;-79
2024/01/18 03:39:06;;;;;;;7.57;5.60;;;;;;;-142.57;100.00;55963.72;5033862;28;20057;-77
2024/01/18 03:41:34;;;;;;;6.78;5.03;;;;;;;-142.57;100.00;55937.44;4999649;28;20486;-79
2024/01/18 03:44:03;;;;;;;6.55;5.13;;;;;;;-142.57;100.00;55935.41;5033574;28;20056;-79
2024/01/18 03:46:29;;;;;;;6.15;4.25;;;;;;;-142.57;100.00;55901.06;5033324;28;20052;-79
2024/01/18 03:48:54;;;;;;;6.60;4.57;;;;;;;-142.57;100.00;55899.03;5033785;28;20033;-78
2024/01/18 03:51:20;;;;;;;6.85;4.57;;;;;;;-142.57;100.00;55899.03;5033363;28;20390;-78
2024/01/18 03:53:45;;;;;;;6.35;4.60;;;;;;;-142.57;100.00;55895.00;5033327;28;20061;-79
2024/01/18 03:56:14;;;;;;;4.78;3.78;;;;;;;-142.57;100.00;55892.97;5017555;28;20035;-82
2024/01/18 03:58:42;;;;;;;6.18;4.45;;;;;;;-142.57;100.00;55915.22;5016245;28;20102;-78
2024/01/18 04:01:08;;;;;;;7.07;4.43;;;;;;;-142.57;100.00;55895.00;5033583;28;20048;-77
2024/01/18 04:03:33;;;;;;;4.25;3.67;;;;;;;-142.57;100.00;55907.13;5015957;28;20132;-79
2024/01/18 04:05:58;;;;;;;6.07;4.50;;;;;;;-142.57;100.00;55899.03;5033547;28;20048;-79
2024/01/18 04:08:27;;;;;;;5.10;3.72;;;;;;;-142.57;100.00;55935.41;5033736;28;20147;-80
2024/01/18 04:10:53;;;;;;;4.20;3.50;;;;;;;-142.57;100.00;55888.94;5034014;28;20087;-82
2024/01/18 04:13:18;;;;;;;4.47;3.20;;;;;;;-142.57;100.00;55890.97;5032317;28;20112;-82
2024/01/18 04:15:44;;;;;;;4.38;3.58;;;;;;;-142.57;100.00;55899.03;5016414;28;20036;-80
2024/01/18 04:18:09;;;;;;;3.40;3.05;;;;;;;-142.57;100.00;55903.09;5033121;28;20049;-77
2024/01/18 04:20:35;;;;;;;3.75;3.05;;;;;;;-142.57;100.00;55850.56;5033943;28;20120;-79
2024/01/18 04:23:00;;;;;;;4.40;3.60;;;;;;;-142.57;100.00;55878.84;5015634;28;20077;-79
2024/01/18 04:25:26;;;;;;;3.88;3.17;;;;;;;-142.57;100.00;55915.22;5032145;28;20037;-82
2024/01/18 04:27:51;;;;;;;4.15;3.15;;;;;;;-142.57;100.00;55850.56;5033049;28;20040;-79
2024/01/18 04:30:17;;;;;;;3.65;2.90;;;;;;;-142.57;100.00;55897.03;5031784;28;20029;-80
2024/01/18 04:32:42;;;;;;;4.25;3.25;;;;;;;-142.57;100.00;55866.72;5034316;28;20029;-77
2024/01/18 04:35:08;;;;;;;4.50;3.53;;;;;;;-142.57;100.00;55880.84;5032979;28;20045;-77
2024/01/18 04:37:34;;;;;;;2.85;2.50;;;;;;;-142.57;100.00;55856.63;5033014;28;20033;-80
2024/01/18 04:39:59;;;;;;;3.65;2.80;;;;;;;-142.57;100.00;55830.34;5032772;28;20034;-80
2024/01/18 04:42:26;;;;;;;4.05;3.08;;;;;;;-142.57;100.00;55826.31;5032532;28;20391;-80
2024/01/18 04:44:51;;;;;;;2.80;2.50;;;;;;;-142.57;100.00;55842.47;5032744;28;20044;-80
2024/01/18 04:47:17;;;;;;;3.95;3.20;;;;;;;-142.57;100.00;55876.81;5032673;28;20482;-76
2024/01/18 04:49:42;;;;;;;3.88;3.17;;;;;;;-142.57;100.00;55870.75;5032165;28;20424;-80
2024/01/18 04:52:08;;;;;;;4.50;3.38;;;;;;;-142.57;100.00;55810.13;5032388;28;20028;-80
2024/01/18 04:54:33;;;;;;;4.47;3.25;;;;;;;-142.57;100.00;55850.56;5032550;28;20497;-77
2024/01/18 04:56:59;;;;;;;4.88;3.20;;;;;;;-142.57;100.00;55862.69;5032365;28;20033;-77
2024/01/18 04:59:25;;;;;;;4.32;3.08;;;;;;;-142.57;100.00;55852.56;5032220;28;20517;-76
2024/01/18 05:01:51;;;;;;;5.28;3.55;;;;;;;-142.57;100.00;55876.81;5032063;28;20030;-79
2024/01/18 05:04:18;;;;;;;4.68;3.10;;;;;;;-142.57;100.00;55822.25;5032350;28;20037;-80
2024/01/18 05:06:44;;;;;;;4.10;3.00;;;;;;;-142.57;100.00;55806.09;5032346;28;20118;-79
2024/01/18 05:09:09;;;;;;;3.35;2.80;;;;;;;-142.57;100.00;55808.13;5032126;28;20080;-80
2024/01/18 05:11:35;;;;;;;5.30;3.65;;;;;;;-142.57;100.00;55785.91;5032207;28;20447;-79
2024/01/18 05:14:03;;;;;;;4.25;3.28;;;;;;;-142.57;100.00;55806.09;5032422;28;20495;-79
2024/01/18 05:16:31;;;;;;;4.80;3.70;;;;;;;-142.57;100.00;55796.00;5032271;28;20048;-82
2024/01/18 05:18:57;;;;;;;3.97;3.55;;;;;;;-142.57;100.00;55818.22;5032382;28;20045;-79
2024/01/18 05:21:23;;;;;;;4.63;3.75;;;;;;;-142.57;100.00;55822.25;5032094;28;20075;-81
2024/01/18 05:23:49;;;;;;;5.70;4.43;;;;;;;-142.57;100.00;55820.25;5032039;28;20494;-81
2024/01/18 05:26:14;;;;;;;5.22;3.88;;;;;;;-142.57;100.00;55818.22;5032286;28;20113;-83
2024/01/18 05:28:40;;;;;;;5.13;4.25;;;;;;;-142.57;100.00;55818.22;5034140;28;20033;-81
2024/01/18 05:31:05;;;;;;;6.55;4.50;;;;;;;-142.57;100.00;55824.28;5047117;28;20017;-80
2024/01/18 05:33:31;;;;;;;4.32;3.85;;;;;;;-142.57;100.00;55858.63;5043184;28;20063;-78
2024/01/18 05:35:57;;;;;;;5.90;3.90;;;;;;;-142.57;100.00;55810.13;5048148;28;20414;-82
2024/01/18 05:38:22;;;;;;;4.82;3.90;;;;;;;-142.57;100.00;55842.47;5036217;28;20039;-82
2024/01/18 05:40:48;;;;;;;5.15;3.97;;;;;;;-142.57;100.00;55796.00;5035807;28;20042;-83
2024/01/18 05:43:13;;;;;;;8.77;3.88;;;;;;;-142.57;100.00;55818.22;5035082;28;20116;-82
2024/01/18 05:45:39;;;;;;;4.60;3.90;;;;;;;-142.57;100.00;55798.00;5036149;28;20037;-79
2024/01/18 05:48:05;;;;;;;5.22;4.20;;;;;;;-142.57;100.00;55822.25;5036022;28;20045;-81
2024/01/18 05:50:30;;;;;;;5.55;4.38;;;;;;;-142.57;100.00;55818.22;5035920;28;20045;-78
2024/01/18 05:52:59;;;;;;;5.15;4.05;;;;;;;-142.57;100.00;55818.22;5034162;28;20037;-82
2024/01/18 05:55:25;;;;;;;5.63;4.43;;;;;;;-142.57;100.00;55826.31;5035526;28;20685;-82
2024/01/18 05:57:50;;;;;;;11.32;4.57;;;;;;;-142.57;100.00;55844.50;5035119;28;20033;-79
2024/01/18 06:00:16;;;;;;;6.05;4.70;;;;;;;-142.57;100.00;55818.22;5035487;28;20117;-84
2024/01/18 06:02:42;;;;;;;6.25;4.95;;;;;;;-142.57;100.00;55814.19;5035395;28;20037;-79
2024/01/18 06:05:08;;;;;;;6.50;5.15;;;;;;;-142.57;100.00;55895.00;5035974;28;20394;-77
2024/01/18 06:07:33;;;;;;;6.47;5.15;;;;;;;-142.57;100.00;55850.56;5035225;28;20120;-79
2024/01/18 06:10:04;;;;;;;7.03;5.13;;;;;;;-142.57;100.00;55876.81;5035127;28;20014;-81
2024/01/18 06:12:29;;;;;;;5.97;5.05;;;;;;;-142.57;100.00;55798.00;5035503;28;20087;-77
2024/01/18 06:14:55;;;;;;;6.60;5.10;;;;;;;-142.57;100.00;55848.53;5036322;28;20447;-78
2024/01/18 06:17:20;;;;;;;7.03;5.20;;;;;;;-142.57;100.00;55812.16;5035686;28;20048;-78
2024/01/18 06:19:46;;;;;;;7.90;5.80;;;;;;;-142.57;100.00;55838.44;5034578;28;20830;-78
2024/01/18 06:22:14;;;;;;;7.40;5.32;;;;;;;-142.57;100.00;55816.19;5034593;28;20030;-78
2024/01/18 06:24:39;;;;;;;7.22;5.80;;;;;;;-142.57;100.00;55810.13;5034755;28;20040;-78
2024/01/18 06:27:05;;;;;;;7.95;5.53;;;;;;;-142.57;100.00;55793.97;5029286;28;20454;-82
2024/01/18 06:29:30;;;;;;;9.20;6.15;;;;;;;-142.57;100.00;55775.78;5033294;28;20041;-79
2024/01/18 06:31:56;;;;;;;8.20;6.20;;;;;;;-142.57;100.00;55798.00;5034312;28;20087;-79
2024/01/18 06:34:22;;;;;;;11.57;6.65;;;;;;;-142.57;100.00;55818.22;5035054;28;20477;-78
2024/01/18 06:36:47;;;;;;;9.25;6.45;;;;;;;-142.57;100.00;55767.72;5035102;28;20045;-79
2024/01/18 06:39:15;;;;;;;12.30;6.68;;;;;;;-142.57;100.00;55814.19;5035613;28;20037;-81
2024/01/18 06:41:41;;;;;;;10.95;6.20;;;;;;;-142.57;100.00;55820.25;5038883;28;20041;-83
2024/01/18 06:44:07;;;;;;;10.82;6.95;;;;;;;-142.57;100.00;55822.25;5035429;28;20041;-81
2024/01/18 06:46:32;;;;;;;10.15;6.28;;;;;;;-142.57;100.00;55793.97;5034624;28;20806;-79
2024/01/18 06:49:00;;;;;;;11.02;6.93;;;;;;;-142.57;100.00;55793.97;5035039;28;20103;-80
2024/01/18 06:51:26;;;;;;;9.75;7.00;;;;;;;-142.57;100.00;55806.09;5034583;28;20486;-77
2024/01/18 06:53:53;;;;;;;8.85;6.13;;;;;;;-142.57;100.00;55826.31;5034487;28;20041;-80
2024/01/18 06:56:18;;;;;;;8.52;6.03;;;;;;;-142.57;100.00;55789.94;5016854;28;20111;-80
2024/01/18 06:58:44;;;;;;;10.52;6.05;;;;;;;-142.57;100.00;55806.09;5017621;28;20123;-79
2024/01/18 07:01:10;;;;;;;8.98;5.60;;;;;;;-142.57;100.00;55771.75;5034431;28;20068;-80
2024/01/18 07:03:36;;;;;;;8.20;5.97;;;;;;;-142.57;100.00;55838.44;5034372;28;20033;-79
2024/01/18 07:06:03;;;;;;;8.68;5.90;;;;;;;-142.57;100.00;55802.06;5034562;28;20033;-82
2024/01/18 07:08:29;;;;;;;9.95;5.90;;;;;;;-142.57;100.00;55800.03;5034234;28;20536;-80
2024/01/18 07:10:55;;;;;;;7.28;5.45;;;;;;;-142.57;100.00;55818.22;5016527;28;20387;-80
2024/01/18 07:13:20;;;;;;;7.90;5.55;;;;;;;-142.57;100.00;55798.00;5034310;28;20070;-80
2024/01/18 07:15:46;;;;;;;6.95;5.10;;;;;;;-142.57;100.00;55791.94;5034225;28;20406;-81
2024/01/18 07:18:12;;;;;;;8.50;5.18;;;;;;;-142.57;100.00;55806.09;5033958;28;20038;-81
2024/01/18 07:20:38;;;;;;;7.60;4.97;;;;;;;-142.57;100.00;55834.38;5034148;28;20124;-79
2024/01/18 07:23:04;;;;;;;6.82;4.40;;;;;;;-142.57;100.00;55836.41;5033943;28;20466;-79
2024/01/18 07:25:29;;;;;;;8.35;4.90;;;;;;;-142.57;100.00;55872.78;5034203;28;20086;-80
2024/01/18 07:27:55;;;;;;;7.63;4.95;;;;;;;-142.57;100.00;55882.88;5033832;28;20061;-80
2024/01/18 07:30:22;;;;;;;7.78;4.78;;;;;;;-142.57;100.00;55897.03;5016080;28;20037;-82
2024/01/18 07:32:48;;;;;;;7.97;5.38;;;;;;;-142.57;100.00;55862.69;5034096;28;20041;-78
2024/01/18 07:35:14;;;;;;;7.43;5.13;;;;;;;-142.57;100.00;55842.47;5016174;28;20096;-81
2024/01/18 07:37:40;;;;;;;7.05;4.80;;;;;;;-142.57;100.00;55842.47;5034361;28;20042;-79
2024/01/18 07:40:06;;;;;;;7.47;5.18;;;;;;;-142.57;100.00;55856.63;5034508;28;20038;-79
2024/01/18 07:42:32;;;;;;;8.27;4.97;;;;;;;-142.57;100.00;55903.09;5015966;28;20109;-80
2024/01/18 07:44:58;;;;;;;7.57;4.70;;;;;;;-142.57;100.00;55899.03;5020672;28;20255;-78
2024/01/18 07:47:24;;;;;;;8.60;5.20;;;;;;;-142.57;100.00;55923.28;5035802;28;20030;-82
2024/01/18 07:49:50;;;;;;;8.43;5.20;;;;;;;-142.57;100.00;56012.19;5042177;28;20094;-83
2024/01/18 07:52:17;;;;;;;5.38;4.45;;;;;;;-142.57;100.00;56000.06;5024460;28;20486;-81
2024/01/18 07:54:43;;;;;;;7.38;4.95;;;;;;;-142.57;100.00;55996.03;5042934;28;20394;-80
2024/01/18 07:57:09;;;;;;;7.68;4.35;;;;;;;-142.57;100.00;55981.88;5041100;28;20044;-81
2024/01/18 07:59:35;;;;;;;10.98;4.78;;;;;;;-142.57;100.00;55947.53;5043301;28;20025;-79
2024/01/18 08:02:01;;;;;;;8.43;5.38;;;;;;;-142.57;100.00;55996.03;5022867;28;20122;-80
2024/01/18 08:04:27;;;;;;;7.78;5.25;;;;;;;-142.57;100.00;56004.13;5043492;28;20028;-80
2024/01/18 08:06:52;;;;;;;7.85;5.57;;;;;;;-142.57;100.00;56016.25;5041615;28;20040;-79
2024/01/18 08:09:18;;;;;;;11.90;5.78;;;;;;;-142.57;100.00;56016.25;5042860;28;20037;-80
2024/01/18 08:11:43;;;;;;;9.60;6.20;;;;;;;-142.57;100.00;55939.47;5043993;28;20061;-84
2024/01/18 08:14:11;;;;;;;7.75;6.18;;;;;;;-142.57;100.00;55951.59;5051781;28;20612;-83
2024/01/18 08:16:36;;;;;;;8.32;5.88;;;;;;;-142.57;100.00;55923.28;5035819;28;20501;-81
2024/01/18 08:19:02;;;;;;;11.35;7.60;;;;;;;-142.57;100.00;55923.28;5034577;28;20064;-84
2024/01/18 08:21:27;;;;;;;9.88;7.00;;;;;;;-142.57;100.00;55933.41;5034859;28;20069;-88
2024/01/18 08:23:53;;;;;;;11.45;7.43;;;;;;;-142.57;100.00;55943.50;5025624;28;20030;-86
2024/01/18 08:26:21;;;;;;;10.93;8.13;;;;;;;-142.57;100.00;55915.22;5023996;28;20022;-84
2024/01/18 08:28:47;;;;;;;11.40;8.15;;;;;;;-142.57;100.00;55907.13;5040719;28;20044;-82
2024/01/18 08:31:12;;;;;;;14.80;8.48;;;;;;;-142.57;100.00;55905.09;5053550;28;20478;-84
2024/01/18 08:33:38;;;;;;;13.68;9.80;;;;;;;-142.57;100.00;55994.00;5046306;28;20105;-88
2024/01/18 08:36:04;;;;;;;14.05;9.75;;;;;;;-142.57;100.00;55989.97;5039128;28;20037;-83
2024/01/18 08:38:30;;;;;;;13.60;9.68;;;;;;;-142.57;100.00;56012.19;5030684;28;20482;-80
2024/01/18 08:40:59;;;;;;;14.18;9.27;;;;;;;-142.57;100.00;56008.16;5033228;28;20047;-80
2024/01/18 08:43:27;;;;;;;17.25;10.25;;;;;;;-142.57;100.00;55996.03;5033998;28;20033;-81
2024/01/18 08:45:55;;;;;;;16.63;10.80;;;;;;;-142.57;100.00;55996.03;5034182;28;20501;-84
2024/01/18 08:48:23;;;;;;;15.52;10.80;;;;;;;-142.57;100.00;56052.63;5033349;28;20104;-84
2024/01/18 08:50:49;;;;;;;15.88;10.93;;;;;;;-142.57;100.00;56030.38;5026754;28;20125;-84
2024/01/18 08:53:15;;;;;;;16.60;10.38;;;;;;;-142.57;100.00;56030.38;5026172;28;20048;-83
2024/01/18 08:55:41;;;;;;;17.58;10.60;;;;;;;-142.57;100.00;56044.53;5027460;28;20034;-82
2024/01/18 08:58:07;;;;;;;29.17;14.32;;;;;;;-142.57;100.00;56117.28;5019422;28;20063;-83
2024/01/18 09:00:37;;;;;;;25.38;13.27;;;;;;;-142.57;100.00;56139.50;5015404;28;20037;-78
2024/01/18 09:03:04;;;;;;;37.00;15.82;;;;;;;-142.57;100.00;56185.97;5015108;28;20033;-82
2024/01/18 09:05:30;;;;;;;57.33;24.58;;;;;;;-142.57;100.00;56183.97;5022630;28;20037;-79
2024/01/18 09:07:57;;;;;;;29.48;15.57;;;;;;;-142.57;100.00;56173.84;5035048;28;20037;-80
2024/01/18 09:10:22;;;;;;;46.20;22.58;;;;;;;-142.57;100.00;56165.78;5035913;28;20104;-81
2024/01/18 09:12:48;;;;;;;22.48;13.27;;;;;;;-142.57;100.00;56230.44;5041847;28;20025;-79
2024/01/18 09:15:14;;;;;;;29.25;15.48;;;;;;;-142.57;100.00;56289.03;5025433;28;20037;-83
2024/01/18 09:17:42;;;;;;;23.50;14.60;;;;;;;-142.57;100.00;56232.47;5021086;28;20389;-82
2024/01/18 09:20:09;;;;;;;26.05;15.30;;;;;;;-142.57;100.00;56188.00;5026657;28;20057;-81
2024/01/18 09:22:35;;;;;;;46.28;22.02;;;;;;;-142.57;100.00;56161.72;5034791;28;20033;-80
2024/01/18 09:25:01;;;;;;;28.10;16.48;;;;;;;-142.57;100.00;56105.16;5032145;28;20037;-80
2024/01/18 09:27:27;;;;;;;36.15;17.90;;;;;;;-142.57;100.00;56115.25;5025671;28;20104;-86
2024/01/18 09:29:52;;;;;;;27.75;16.13;;;;;;;-142.57;100.00;56080.91;5024472;28;20033;-81
2024/01/18 09:32:18;;;;;;;30.48;15.48;;;;;;;-142.57;100.00;56123.34;5021450;28;20030;-83
2024/01/18 09:34:43;;;;;;;27.70;16.67;;;;;;;-142.57;100.00;56076.88;5023411;28;20451;-80
2024/01/18 09:37:09;;;;;;;31.73;17.73;;;;;;;-142.57;100.00;56105.16;5020897;28;20034;-81
2024/01/18 09:39:34;;;;;;;32.17;18.55;;;;;;;-142.57;100.00;56084.94;5012549;28;20030;-77
2024/01/18 09:42:03;;;;;;;39.55;20.50;;;;;;;-142.57;100.00;56105.16;5013583;28;20038;-79
2024/01/18 09:44:32;;;;;;;34.05;18.77;;;;;;;-142.57;100.00;56143.56;5028291;28;20030;-78
2024/01/18 09:47:01;;;;;;;34.92;18.92;;;;;;;-142.57;100.00;56080.91;5048125;28;20064;-77
2024/01/18 09:49:30;;;;;;;39.65;20.67;;;;;;;-142.57;100.00;56133.44;5043955;28;20096;-79
2024/01/18 09:51:58;;;;;;;38.03;20.15;;;;;;;-142.57;100.00;56137.50;5037821;28;20454;-80
2024/01/18 09:54:24;;;;;;;38.17;20.38;;;;;;;-142.57;100.00;56103.13;5030652;28;20424;-81
2024/01/18 09:56:53;;;;;;;40.47;21.13;;;;;;;-142.57;100.00;56064.75;5022581;28;20077;-82
2024/01/18 09:59:21;;;;;;;39.47;20.38;;;;;;;-142.57;100.00;56097.06;5027173;28;20052;-78
2024/01/18 10:01:47;;;;;;;38.28;22.30;;;;;;;-142.57;100.00;56137.50;5030111;28;20471;-83
2024/01/18 10:04:13;;;;;;;41.88;21.85;;;;;;;-142.57;100.00;56097.06;5021650;28;20513;-79
2024/01/18 10:06:40;;;;;;;38.15;21.02;;;;;;;-142.57;100.00;56157.69;5021302;28;20036;-81
2024/01/18 10:09:10;;;;;;;45.17;23.52;;;;;;;-142.57;100.00;56131.44;5013030;28;20030;-81
2024/01/18 10:11:38;;;;;;;44.70;24.25;;;;;;;-142.57;100.00;56095.06;5025255;28;20091;-82
2024/01/18 10:14:04;;;;;;;46.85;24.42;;;;;;;-142.57;100.00;56091.00;5030625;28;20121;-79
2024/01/18 10:16:33;;;;;;;54.88;27.95;;;;;;;-142.57;100.00;56060.69;5016756;28;20445;-82
2024/01/18 10:19:01;;;;;;;54.58;27.05;;;;;;;-142.57;100.00;56103.13;5024557;28;20088;-82
2024/01/18 10:21:29;;;;;;;57.78;28.50;;;;;;;-142.57;100.00;56145.56;5020921;28;20113;-82
2024/01/18 10:23:56;;;;;;;56.05;27.55;;;;;;;-142.57;100.00;56133.44;5005858;28;20487;-83
2024/01/18 10:26:27;;;;;;;59.05;30.13;;;;;;;-142.57;100.00;56125.38;5023617;28;20453;-83
2024/01/18 10:28:53;;;;;;;65.95;30.63;;;;;;;-142.57;100.00;56113.25;5026884;28;20030;-80
2024/01/18 10:31:18;;;;;;;61.72;29.58;;;;;;;-142.57;100.00;56139.50;5031304;28;20096;-80
2024/01/18 10:33:47;;;;;;;66.43;33.25;;;;;;;-142.57;100.00;56177.91;5014607;28;20038;-81
2024/01/18 10:36:13;;;;;;;63.22;33.45;;;;;;;-142.57;100.00;56173.84;4990847;28;20076;-83
2024/01/18 10:38:40;;;;;;;71.07;35.85;;;;;;;-142.57;100.00;56157.69;5010022;28;20045;-83
2024/01/18 10:41:07;;;;;;;76.38;38.25;;;;;;;-142.57;100.00;56137.50;5023866;28;20029;-83
2024/01/18 10:43:34;;;;;;;77.00;39.55;;;;;;;-142.57;100.00;56179.91;5021417;28;20037;-81
2024/01/18 10:46:02;;;;;;;85.78;41.00;;;;;;;-142.57;100.00;56179.91;5004809;28;20042;-83
2024/01/18 10:48:29;;;;;;;89.53;42.22;;;;;;;-142.57;100.00;56165.78;5026494;28;20364;-80
2024/01/18 10:50:56;;;;;;;83.60;41.92;;;;;;;-142.57;100.00;56161.72;5030349;28;20575;-83
2024/01/18 10:53:26;;;;;;;82.85;42.00;;;;;;;-142.57;100.00;56183.97;5028085;28;20030;-79
2024/01/18 10:55:52;;;;;;;84.95;43.53;;;;;;;-142.57;100.00;56218.31;5007322;28;20034;-82
2024/01/18 10:58:19;;;;;;;88.93;44.45;;;;;;;-142.57;100.00;56198.09;5014700;28;20034;-81